sensor_id;sensor_type;location;lat;lon;timestamp;P1;durP1;ratioP1;P2;durP2;ratioP2
39346;SDS011;26262;49.836;6.632;2023-06-10T00:01:23;9.50;;;7.88;;
39346;SDS011;26262;49.836;6.632;2023-06-10T00:03:50;7.40;;;6.70;;
39346;SDS011;26262;49.836;6.632;2023-06-10T00:06:17;7.72;;;6.97;;
39346;SDS011;26262;49.836;6.632;2023-06-10T00:08:43;8.93;;;6.82;;
39346;SDS011;26262;49.836;6.632;2023-06-10T00:11:08;7.63;;;6.40;;
39346;SDS011;26262;49.836;6.632;2023-06-10T00:13:35;8.00;;;6.78;;
39346;SDS011;26262;49.836;6.632;2023-06-10T00:16:00;8.20;;;6.50;;
39346;SDS011;26262;49.836;6.632;2023-06-10T00:18:26;7.72;;;6.95;;
39346;SDS011;26262;49.836;6.632;2023-06-10T00:20:52;8.48;;;7.07;;
39346;SDS011;26262;49.836;6.632;2023-06-10T00:23:20;7.43;;;6.65;;
39346;SDS011;26262;49.836;6.632;2023-06-10T00:25:46;7.65;;;6.50;;
39346;SDS011;26262;49.836;6.632;2023-06-10T00:28:12;8.98;;;6.45;;
39346;SDS011;26262;49.836;6.632;2023-06-10T00:30:38;7.93;;;6.80;;
39346;SDS011;26262;49.836;6.632;2023-06-10T00:33:04;7.07;;;6.38;;
39346;SDS011;26262;49.836;6.632;2023-06-10T00:35:29;7.22;;;6.53;;
39346;SDS011;26262;49.836;6.632;2023-06-10T00:37:55;8.57;;;6.72;;
39346;SDS011;26262;49.836;6.632;2023-06-10T00:40:20;7.75;;;6.53;;
39346;SDS011;26262;49.836;6.632;2023-06-10T00:42:46;7.60;;;6.78;;
39346;SDS011;26262;49.836;6.632;2023-06-10T00:45:12;7.43;;;6.50;;
39346;SDS011;26262;49.836;6.632;2023-06-10T00:47:38;7.07;;;6.38;;
39346;SDS011;26262;49.836;6.632;2023-06-10T00:50:04;7.68;;;6.82;;
39346;SDS011;26262;49.836;6.632;2023-06-10T00:52:31;7.40;;;6.70;;
39346;SDS011;26262;49.836;6.632;2023-06-10T00:54:57;7.55;;;6.55;;
39346;SDS011;26262;49.836;6.632;2023-06-10T00:57:24;8.50;;;7.15;;
39346;SDS011;26262;49.836;6.632;2023-06-10T00:59:50;7.68;;;6.97;;
39346;SDS011;26262;49.836;6.632;2023-06-10T01:02:16;8.85;;;7.95;;
39346;SDS011;26262;49.836;6.632;2023-06-10T01:04:42;7.72;;;6.93;;
39346;SDS011;26262;49.836;6.632;2023-06-10T01:10:07;8.98;;;7.13;;
39346;SDS011;26262;49.836;6.632;2023-06-10T01:12:58;8.48;;;7.57;;
39346;SDS011;26262;49.836;6.632;2023-06-10T01:15:28;7.88;;;6.40;;
39346;SDS011;26262;49.836;6.632;2023-06-10T01:17:59;7.57;;;6.88;;
39346;SDS011;26262;49.836;6.632;2023-06-10T01:20:29;8.10;;;6.85;;
39346;SDS011;26262;49.836;6.632;2023-06-10T01:22:57;8.18;;;7.25;;
39346;SDS011;26262;49.836;6.632;2023-06-10T01:25:24;8.10;;;6.10;;
39346;SDS011;26262;49.836;6.632;2023-06-10T01:28:07;8.07;;;7.10;;
39346;SDS011;26262;49.836;6.632;2023-06-10T01:31:25;8.13;;;7.32;;
39346;SDS011;26262;49.836;6.632;2023-06-10T01:33:44;8.82;;;7.93;;
39346;SDS011;26262;49.836;6.632;2023-06-10T01:36:13;8.75;;;7.85;;
39346;SDS011;26262;49.836;6.632;2023-06-10T01:38:42;8.68;;;7.88;;
39346;SDS011;26262;49.836;6.632;2023-06-10T01:41:10;9.07;;;8.18;;
39346;SDS011;26262;49.836;6.632;2023-06-10T01:43:38;8.63;;;7.28;;
39346;SDS011;26262;49.836;6.632;2023-06-10T01:46:04;8.65;;;7.32;;
39346;SDS011;26262;49.836;6.632;2023-06-10T01:48:31;8.43;;;6.95;;
39346;SDS011;26262;49.836;6.632;2023-06-10T01:50:57;11.60;;;7.95;;
39346;SDS011;26262;49.836;6.632;2023-06-10T01:53:23;8.93;;;7.35;;
39346;SDS011;26262;49.836;6.632;2023-06-10T01:55:48;9.98;;;7.63;;
39346;SDS011;26262;49.836;6.632;2023-06-10T01:58:14;8.20;;;7.40;;
39346;SDS011;26262;49.836;6.632;2023-06-10T02:00:40;8.18;;;7.38;;
39346;SDS011;26262;49.836;6.632;2023-06-10T02:03:05;8.90;;;8.05;;
39346;SDS011;26262;49.836;6.632;2023-06-10T02:05:31;8.90;;;8.07;;
39346;SDS011;26262;49.836;6.632;2023-06-10T02:07:57;8.73;;;7.82;;
39346;SDS011;26262;49.836;6.632;2023-06-10T02:10:22;7.85;;;7.10;;
39346;SDS011;26262;49.836;6.632;2023-06-10T02:12:48;8.18;;;7.38;;
39346;SDS011;26262;49.836;6.632;2023-06-10T02:15:14;8.23;;;7.43;;
39346;SDS011;26262;49.836;6.632;2023-06-10T02:17:39;8.05;;;7.07;;
39346;SDS011;26262;49.836;6.632;2023-06-10T02:20:05;9.30;;;7.88;;
39346;SDS011;26262;49.836;6.632;2023-06-10T02:22:32;9.63;;;7.60;;
39346;SDS011;26262;49.836;6.632;2023-06-10T02:24:58;8.38;;;7.60;;
39346;SDS011;26262;49.836;6.632;2023-06-10T02:27:23;8.60;;;7.65;;
39346;SDS011;26262;49.836;6.632;2023-06-10T02:29:49;8.45;;;7.65;;
39346;SDS011;26262;49.836;6.632;2023-06-10T02:32:21;8.73;;;7.28;;
39346;SDS011;26262;49.836;6.632;2023-06-10T02:34:47;8.13;;;6.90;;
39346;SDS011;26262;49.836;6.632;2023-06-10T02:37:13;9.63;;;7.23;;
39346;SDS011;26262;49.836;6.632;2023-06-10T02:39:39;8.55;;;7.70;;
39346;SDS011;26262;49.836;6.632;2023-06-10T02:42:05;8.27;;;7.47;;
39346;SDS011;26262;49.836;6.632;2023-06-10T02:44:31;8.25;;;7.45;;
39346;SDS011;26262;49.836;6.632;2023-06-10T02:46:57;8.95;;;7.80;;
39346;SDS011;26262;49.836;6.632;2023-06-10T02:49:22;8.50;;;7.70;;
39346;SDS011;26262;49.836;6.632;2023-06-10T02:51:49;8.95;;;8.05;;
39346;SDS011;26262;49.836;6.632;2023-06-10T02:54:18;9.77;;;8.10;;
39346;SDS011;26262;49.836;6.632;2023-06-10T02:56:44;8.82;;;7.88;;
39346;SDS011;26262;49.836;6.632;2023-06-10T02:59:10;8.07;;;7.35;;
39346;SDS011;26262;49.836;6.632;2023-06-10T03:01:36;8.13;;;7.32;;
39346;SDS011;26262;49.836;6.632;2023-06-10T03:04:05;8.35;;;7.55;;
39346;SDS011;26262;49.836;6.632;2023-06-10T03:06:31;8.63;;;7.45;;
39346;SDS011;26262;49.836;6.632;2023-06-10T03:08:58;8.57;;;7.78;;
39346;SDS011;26262;49.836;6.632;2023-06-10T03:11:29;8.35;;;7.53;;
39346;SDS011;26262;49.836;6.632;2023-06-10T03:13:54;8.90;;;8.07;;
39346;SDS011;26262;49.836;6.632;2023-06-10T03:16:21;9.07;;;8.27;;
39346;SDS011;26262;49.836;6.632;2023-06-10T03:18:47;8.73;;;7.82;;
39346;SDS011;26262;49.836;6.632;2023-06-10T03:21:13;9.77;;;8.15;;
39346;SDS011;26262;49.836;6.632;2023-06-10T03:23:39;9.32;;;8.40;;
39346;SDS011;26262;49.836;6.632;2023-06-10T03:26:04;9.70;;;8.73;;
39346;SDS011;26262;49.836;6.632;2023-06-10T03:28:30;9.10;;;8.30;;
39346;SDS011;26262;49.836;6.632;2023-06-10T03:30:56;9.60;;;8.30;;
39346;SDS011;26262;49.836;6.632;2023-06-10T03:33:22;8.90;;;7.95;;
39346;SDS011;26262;49.836;6.632;2023-06-10T03:35:47;8.70;;;7.85;;
39346;SDS011;26262;49.836;6.632;2023-06-10T03:38:13;9.40;;;8.50;;
39346;SDS011;26262;49.836;6.632;2023-06-10T03:40:39;10.15;;;7.97;;
39346;SDS011;26262;49.836;6.632;2023-06-10T03:43:05;9.07;;;8.18;;
39346;SDS011;26262;49.836;6.632;2023-06-10T03:45:30;8.40;;;7.50;;
39346;SDS011;26262;49.836;6.632;2023-06-10T03:47:57;9.77;;;8.38;;
39346;SDS011;26262;49.836;6.632;2023-06-10T03:50:22;11.07;;;9.20;;
39346;SDS011;26262;49.836;6.632;2023-06-10T03:52:49;8.85;;;8.00;;
39346;SDS011;26262;49.836;6.632;2023-06-10T03:55:15;8.75;;;7.95;;
39346;SDS011;26262;49.836;6.632;2023-06-10T03:57:41;8.98;;;8.00;;
39346;SDS011;26262;49.836;6.632;2023-06-10T04:00:07;8.95;;;8.15;;
39346;SDS011;26262;49.836;6.632;2023-06-10T04:02:37;9.25;;;8.35;;
39346;SDS011;26262;49.836;6.632;2023-06-10T04:05:06;10.10;;;9.13;;
39346;SDS011;26262;49.836;6.632;2023-06-10T04:07:32;10.02;;;8.98;;
39346;SDS011;26262;49.836;6.632;2023-06-10T04:09:59;9.15;;;8.23;;
39346;SDS011;26262;49.836;6.632;2023-06-10T04:12:24;8.55;;;7.75;;
39346;SDS011;26262;49.836;6.632;2023-06-10T04:14:50;9.07;;;8.25;;
39346;SDS011;26262;49.836;6.632;2023-06-10T04:17:17;8.63;;;7.90;;
39346;SDS011;26262;49.836;6.632;2023-06-10T04:19:42;8.77;;;7.90;;
39346;SDS011;26262;49.836;6.632;2023-06-10T04:22:08;9.68;;;8.10;;
39346;SDS011;26262;49.836;6.632;2023-06-10T04:24:34;9.50;;;8.55;;
39346;SDS011;26262;49.836;6.632;2023-06-10T04:27:00;10.05;;;9.15;;
39346;SDS011;26262;49.836;6.632;2023-06-10T04:29:26;9.10;;;8.30;;
39346;SDS011;26262;49.836;6.632;2023-06-10T04:31:51;9.30;;;8.48;;
39346;SDS011;26262;49.836;6.632;2023-06-10T04:34:17;9.70;;;8.30;;
39346;SDS011;26262;49.836;6.632;2023-06-10T04:36:43;9.80;;;8.85;;
39346;SDS011;26262;49.836;6.632;2023-06-10T04:39:08;8.88;;;8.07;;
39346;SDS011;26262;49.836;6.632;2023-06-10T04:41:34;9.25;;;8.20;;
39346;SDS011;26262;49.836;6.632;2023-06-10T04:43:59;9.40;;;8.05;;
39346;SDS011;26262;49.836;6.632;2023-06-10T04:46:25;8.55;;;7.75;;
39346;SDS011;26262;49.836;6.632;2023-06-10T04:48:50;9.65;;;8.68;;
39346;SDS011;26262;49.836;6.632;2023-06-10T04:51:16;13.73;;;10.02;;
39346;SDS011;26262;49.836;6.632;2023-06-10T04:53:42;13.20;;;9.90;;
39346;SDS011;26262;49.836;6.632;2023-06-10T04:56:07;13.32;;;10.10;;
39346;SDS011;26262;49.836;6.632;2023-06-10T04:58:33;11.00;;;9.88;;
39346;SDS011;26262;49.836;6.632;2023-06-10T05:00:59;8.73;;;7.93;;
39346;SDS011;26262;49.836;6.632;2023-06-10T05:03:24;9.73;;;8.50;;
39346;SDS011;26262;49.836;6.632;2023-06-10T05:05:51;8.05;;;7.35;;
39346;SDS011;26262;49.836;6.632;2023-06-10T05:08:17;9.25;;;8.35;;
39346;SDS011;26262;49.836;6.632;2023-06-10T05:10:43;8.63;;;7.60;;
39346;SDS011;26262;49.836;6.632;2023-06-10T05:13:08;8.52;;;7.72;;
39346;SDS011;26262;49.836;6.632;2023-06-10T05:15:34;9.00;;;8.13;;
39346;SDS011;26262;49.836;6.632;2023-06-10T05:18:00;9.13;;;8.20;;
39346;SDS011;26262;49.836;6.632;2023-06-10T05:20:27;10.45;;;8.68;;
39346;SDS011;26262;49.836;6.632;2023-06-10T05:22:53;10.75;;;8.93;;
39346;SDS011;26262;49.836;6.632;2023-06-10T05:25:19;9.05;;;8.15;;
39346;SDS011;26262;49.836;6.632;2023-06-10T05:27:46;8.70;;;7.90;;
39346;SDS011;26262;49.836;6.632;2023-06-10T05:30:11;8.57;;;7.68;;
39346;SDS011;26262;49.836;6.632;2023-06-10T05:32:37;8.10;;;7.40;;
39346;SDS011;26262;49.836;6.632;2023-06-10T05:35:03;8.55;;;7.68;;
39346;SDS011;26262;49.836;6.632;2023-06-10T05:37:29;8.25;;;7.55;;
39346;SDS011;26262;49.836;6.632;2023-06-10T05:39:55;8.68;;;7.88;;
39346;SDS011;26262;49.836;6.632;2023-06-10T05:42:20;9.27;;;8.38;;
39346;SDS011;26262;49.836;6.632;2023-06-10T05:44:46;7.85;;;7.15;;
39346;SDS011;26262;49.836;6.632;2023-06-10T05:47:11;9.23;;;8.32;;
39346;SDS011;26262;49.836;6.632;2023-06-10T05:49:37;8.73;;;7.80;;
39346;SDS011;26262;49.836;6.632;2023-06-10T05:52:03;8.45;;;7.65;;
39346;SDS011;26262;49.836;6.632;2023-06-10T05:54:29;7.90;;;7.20;;
39346;SDS011;26262;49.836;6.632;2023-06-10T05:56:54;9.20;;;7.82;;
39346;SDS011;26262;49.836;6.632;2023-06-10T05:59:20;7.82;;;7.13;;
39346;SDS011;26262;49.836;6.632;2023-06-10T06:01:47;8.63;;;7.78;;
39346;SDS011;26262;49.836;6.632;2023-06-10T06:04:13;7.97;;;7.28;;
39346;SDS011;26262;49.836;6.632;2023-06-10T06:06:39;8.75;;;8.00;;
39346;SDS011;26262;49.836;6.632;2023-06-10T06:09:05;8.13;;;7.32;;
39346;SDS011;26262;49.836;6.632;2023-06-10T06:11:31;8.07;;;7.32;;
39346;SDS011;26262;49.836;6.632;2023-06-10T06:13:56;9.60;;;7.55;;
39346;SDS011;26262;49.836;6.632;2023-06-10T06:16:22;8.00;;;7.30;;
39346;SDS011;26262;49.836;6.632;2023-06-10T06:18:48;8.90;;;8.07;;
39346;SDS011;26262;49.836;6.632;2023-06-10T06:21:13;9.18;;;8.27;;
39346;SDS011;26262;49.836;6.632;2023-06-10T06:23:39;7.53;;;6.90;;
39346;SDS011;26262;49.836;6.632;2023-06-10T06:26:05;8.88;;;8.07;;
39346;SDS011;26262;49.836;6.632;2023-06-10T06:28:30;8.90;;;7.53;;
39346;SDS011;26262;49.836;6.632;2023-06-10T06:30:56;8.10;;;7.30;;
39346;SDS011;26262;49.836;6.632;2023-06-10T06:33:22;8.30;;;7.50;;
39346;SDS011;26262;49.836;6.632;2023-06-10T06:35:47;10.25;;;8.45;;
39346;SDS011;26262;49.836;6.632;2023-06-10T06:38:13;9.15;;;8.35;;
39346;SDS011;26262;49.836;6.632;2023-06-10T06:40:38;9.57;;;7.38;;
39346;SDS011;26262;49.836;6.632;2023-06-10T06:43:04;9.25;;;7.20;;
39346;SDS011;26262;49.836;6.632;2023-06-10T06:45:29;8.05;;;7.25;;
39346;SDS011;26262;49.836;6.632;2023-06-10T06:47:55;9.48;;;7.63;;
39346;SDS011;26262;49.836;6.632;2023-06-10T06:50:21;8.30;;;7.28;;
39346;SDS011;26262;49.836;6.632;2023-06-10T06:52:47;8.48;;;7.63;;
39346;SDS011;26262;49.836;6.632;2023-06-10T06:55:12;9.20;;;8.30;;
39346;SDS011;26262;49.836;6.632;2023-06-10T06:57:38;8.02;;;7.25;;
39346;SDS011;26262;49.836;6.632;2023-06-10T07:00:03;8.35;;;7.50;;
39346;SDS011;26262;49.836;6.632;2023-06-10T07:02:30;8.52;;;7.55;;
39346;SDS011;26262;49.836;6.632;2023-06-10T07:04:57;9.43;;;7.07;;
39346;SDS011;26262;49.836;6.632;2023-06-10T07:07:23;10.33;;;8.20;;
39346;SDS011;26262;49.836;6.632;2023-06-10T07:09:49;7.72;;;7.00;;
39346;SDS011;26262;49.836;6.632;2023-06-10T07:12:15;9.23;;;7.57;;
39346;SDS011;26262;49.836;6.632;2023-06-10T07:14:41;8.57;;;7.70;;
39346;SDS011;26262;49.836;6.632;2023-06-10T07:17:06;7.70;;;6.80;;
39346;SDS011;26262;49.836;6.632;2023-06-10T07:19:32;7.22;;;6.53;;
39346;SDS011;26262;49.836;6.632;2023-06-10T07:21:57;8.90;;;7.50;;
39346;SDS011;26262;49.836;6.632;2023-06-10T07:24:23;7.35;;;6.20;;
39346;SDS011;26262;49.836;6.632;2023-06-10T07:26:49;8.27;;;6.65;;
39346;SDS011;26262;49.836;6.632;2023-06-10T07:29:15;7.68;;;6.25;;
39346;SDS011;26262;49.836;6.632;2023-06-10T07:31:41;6.63;;;6.10;;
39346;SDS011;26262;49.836;6.632;2023-06-10T07:34:06;7.35;;;6.35;;
39346;SDS011;26262;49.836;6.632;2023-06-10T07:36:32;7.72;;;6.82;;
39346;SDS011;26262;49.836;6.632;2023-06-10T07:38:58;6.57;;;5.95;;
39346;SDS011;26262;49.836;6.632;2023-06-10T07:41:23;7.00;;;6.20;;
39346;SDS011;26262;49.836;6.632;2023-06-10T07:43:54;6.90;;;5.97;;
39346;SDS011;26262;49.836;6.632;2023-06-10T07:46:21;6.45;;;5.85;;
39346;SDS011;26262;49.836;6.632;2023-06-10T07:48:48;8.10;;;5.95;;
39346;SDS011;26262;49.836;6.632;2023-06-10T07:51:14;7.03;;;5.68;;
39346;SDS011;26262;49.836;6.632;2023-06-10T07:53:41;5.97;;;5.10;;
39346;SDS011;26262;49.836;6.632;2023-06-10T07:56:06;5.93;;;5.32;;
39346;SDS011;26262;49.836;6.632;2023-06-10T07:58:32;6.38;;;5.47;;
39346;SDS011;26262;49.836;6.632;2023-06-10T08:00:57;7.90;;;5.70;;
39346;SDS011;26262;49.836;6.632;2023-06-10T08:03:23;5.90;;;4.85;;
39346;SDS011;26262;49.836;6.632;2023-06-10T08:05:48;12.00;;;5.38;;
39346;SDS011;26262;49.836;6.632;2023-06-10T08:08:14;7.70;;;5.40;;
39346;SDS011;26262;49.836;6.632;2023-06-10T08:10:40;6.20;;;4.78;;
39346;SDS011;26262;49.836;6.632;2023-06-10T08:13:05;5.82;;;4.72;;
39346;SDS011;26262;49.836;6.632;2023-06-10T08:15:32;6.03;;;4.38;;
39346;SDS011;26262;49.836;6.632;2023-06-10T08:17:58;6.32;;;4.80;;
39346;SDS011;26262;49.836;6.632;2023-06-10T08:20:23;5.57;;;4.45;;
39346;SDS011;26262;49.836;6.632;2023-06-10T08:22:49;5.28;;;4.28;;
39346;SDS011;26262;49.836;6.632;2023-06-10T08:25:15;6.30;;;3.90;;
39346;SDS011;26262;49.836;6.632;2023-06-10T08:27:40;5.53;;;4.50;;
39346;SDS011;26262;49.836;6.632;2023-06-10T08:30:06;6.22;;;4.20;;
39346;SDS011;26262;49.836;6.632;2023-06-10T08:32:33;5.43;;;4.10;;
39346;SDS011;26262;49.836;6.632;2023-06-10T08:34:58;4.60;;;4.20;;
39346;SDS011;26262;49.836;6.632;2023-06-10T08:37:24;5.03;;;4.43;;
39346;SDS011;26262;49.836;6.632;2023-06-10T08:39:49;6.40;;;4.35;;
39346;SDS011;26262;49.836;6.632;2023-06-10T08:42:37;6.65;;;4.00;;
39346;SDS011;26262;49.836;6.632;2023-06-10T08:45:07;5.97;;;4.25;;
39346;SDS011;26262;49.836;6.632;2023-06-10T08:47:38;4.82;;;4.07;;
39346;SDS011;26262;49.836;6.632;2023-06-10T08:50:07;4.18;;;3.70;;
39346;SDS011;26262;49.836;6.632;2023-06-10T08:52:36;4.75;;;4.10;;
39346;SDS011;26262;49.836;6.632;2023-06-10T08:55:03;5.55;;;4.43;;
39346;SDS011;26262;49.836;6.632;2023-06-10T08:57:33;5.85;;;5.00;;
39346;SDS011;26262;49.836;6.632;2023-06-10T08:59:59;4.82;;;4.38;;
39346;SDS011;26262;49.836;6.632;2023-06-10T09:02:25;4.40;;;4.00;;
39346;SDS011;26262;49.836;6.632;2023-06-10T09:04:52;6.72;;;4.78;;
39346;SDS011;26262;49.836;6.632;2023-06-10T09:07:20;4.40;;;3.88;;
39346;SDS011;26262;49.836;6.632;2023-06-10T09:09:46;7.00;;;4.30;;
39346;SDS011;26262;49.836;6.632;2023-06-10T09:12:14;6.82;;;4.00;;
39346;SDS011;26262;49.836;6.632;2023-06-10T09:14:40;4.38;;;3.72;;
39346;SDS011;26262;49.836;6.632;2023-06-10T09:17:10;4.28;;;3.88;;
39346;SDS011;26262;49.836;6.632;2023-06-10T09:19:36;4.93;;;4.18;;
39346;SDS011;26262;49.836;6.632;2023-06-10T09:22:02;4.97;;;4.28;;
39346;SDS011;26262;49.836;6.632;2023-06-10T09:24:28;6.03;;;4.43;;
39346;SDS011;26262;49.836;6.632;2023-06-10T09:27:01;5.47;;;4.22;;
39346;SDS011;26262;49.836;6.632;2023-06-10T09:29:33;4.85;;;4.32;;
39346;SDS011;26262;49.836;6.632;2023-06-10T09:32:17;5.43;;;4.22;;
39346;SDS011;26262;49.836;6.632;2023-06-10T09:34:43;7.80;;;4.40;;
39346;SDS011;26262;49.836;6.632;2023-06-10T09:37:09;6.70;;;4.35;;
39346;SDS011;26262;49.836;6.632;2023-06-10T09:39:37;6.72;;;4.32;;
39346;SDS011;26262;49.836;6.632;2023-06-10T09:42:15;4.40;;;3.92;;
39346;SDS011;26262;49.836;6.632;2023-06-10T09:44:42;5.50;;;4.35;;
39346;SDS011;26262;49.836;6.632;2023-06-10T09:47:12;5.68;;;4.00;;
39346;SDS011;26262;49.836;6.632;2023-06-10T09:49:48;5.05;;;4.03;;
39346;SDS011;26262;49.836;6.632;2023-06-10T09:52:14;5.72;;;4.35;;
39346;SDS011;26262;49.836;6.632;2023-06-10T09:54:47;6.82;;;4.22;;
39346;SDS011;26262;49.836;6.632;2023-06-10T09:57:13;7.40;;;4.10;;
39346;SDS011;26262;49.836;6.632;2023-06-10T09:59:41;4.78;;;4.18;;
39346;SDS011;26262;49.836;6.632;2023-06-10T10:02:09;4.95;;;4.03;;
39346;SDS011;26262;49.836;6.632;2023-06-10T10:04:39;5.93;;;4.15;;
39346;SDS011;26262;49.836;6.632;2023-06-10T10:07:04;5.05;;;3.63;;
39346;SDS011;26262;49.836;6.632;2023-06-10T10:09:32;8.35;;;4.22;;
39346;SDS011;26262;49.836;6.632;2023-06-10T10:11:57;6.45;;;4.30;;
39346;SDS011;26262;49.836;6.632;2023-06-10T10:14:26;4.68;;;3.75;;
39346;SDS011;26262;49.836;6.632;2023-06-10T10:16:53;4.97;;;4.22;;
39346;SDS011;26262;49.836;6.632;2023-06-10T10:19:20;7.43;;;4.45;;
39346;SDS011;26262;49.836;6.632;2023-06-10T10:21:52;6.68;;;4.05;;
39346;SDS011;26262;49.836;6.632;2023-06-10T10:24:23;6.43;;;3.78;;
39346;SDS011;26262;49.836;6.632;2023-06-10T10:26:55;5.43;;;3.63;;
39346;SDS011;26262;49.836;6.632;2023-06-10T10:29:28;4.88;;;4.07;;
39346;SDS011;26262;49.836;6.632;2023-06-10T10:31:58;11.15;;;5.35;;
39346;SDS011;26262;49.836;6.632;2023-06-10T10:35:03;7.53;;;5.15;;
39346;SDS011;26262;49.836;6.632;2023-06-10T10:37:32;6.43;;;4.35;;
39346;SDS011;26262;49.836;6.632;2023-06-10T10:39:59;6.60;;;4.03;;
39346;SDS011;26262;49.836;6.632;2023-06-10T10:42:25;5.32;;;3.50;;
39346;SDS011;26262;49.836;6.632;2023-06-10T10:44:51;5.57;;;4.00;;
39346;SDS011;26262;49.836;6.632;2023-06-10T10:47:19;3.70;;;3.20;;
39346;SDS011;26262;49.836;6.632;2023-06-10T10:49:47;4.75;;;3.80;;
39346;SDS011;26262;49.836;6.632;2023-06-10T10:52:16;4.80;;;3.80;;
39346;SDS011;26262;49.836;6.632;2023-06-10T10:54:45;4.70;;;3.58;;
39346;SDS011;26262;49.836;6.632;2023-06-10T10:57:15;5.22;;;3.08;;
39346;SDS011;26262;49.836;6.632;2023-06-10T11:05:09;5.07;;;3.33;;
39346;SDS011;26262;49.836;6.632;2023-06-10T11:07:36;4.55;;;3.58;;
39346;SDS011;26262;49.836;6.632;2023-06-10T11:10:04;5.30;;;3.65;;
39346;SDS011;26262;49.836;6.632;2023-06-10T11:15:10;4.82;;;3.10;;
39346;SDS011;26262;49.836;6.632;2023-06-10T11:28:38;5.18;;;4.32;;
39346;SDS011;26262;49.836;6.632;2023-06-10T11:31:04;5.78;;;3.53;;
39346;SDS011;26262;49.836;6.632;2023-06-10T11:33:31;4.95;;;3.67;;
39346;SDS011;26262;49.836;6.632;2023-06-10T11:35:56;5.72;;;3.20;;
39346;SDS011;26262;49.836;6.632;2023-06-10T11:38:23;3.88;;;3.33;;
39346;SDS011;26262;49.836;6.632;2023-06-10T11:40:49;3.23;;;2.80;;
39346;SDS011;26262;49.836;6.632;2023-06-10T11:43:18;4.00;;;2.67;;
39346;SDS011;26262;49.836;6.632;2023-06-10T11:45:45;7.40;;;6.70;;
39346;SDS011;26262;49.836;6.632;2023-06-10T11:48:11;4.38;;;3.92;;
39346;SDS011;26262;49.836;6.632;2023-06-10T11:50:38;4.60;;;3.05;;
39346;SDS011;26262;49.836;6.632;2023-06-10T11:53:07;5.32;;;3.08;;
39346;SDS011;26262;49.836;6.632;2023-06-10T11:55:40;4.43;;;3.17;;
39346;SDS011;26262;49.836;6.632;2023-06-10T11:58:17;3.30;;;2.85;;
39346;SDS011;26262;49.836;6.632;2023-06-10T12:00:54;4.07;;;2.80;;
39346;SDS011;26262;49.836;6.632;2023-06-10T12:03:23;4.10;;;2.72;;
39346;SDS011;26262;49.836;6.632;2023-06-10T12:05:55;3.22;;;2.80;;
39346;SDS011;26262;49.836;6.632;2023-06-10T12:08:23;4.63;;;3.70;;
39346;SDS011;26262;49.836;6.632;2023-06-10T12:10:49;5.80;;;2.85;;
39346;SDS011;26262;49.836;6.632;2023-06-10T12:13:15;3.78;;;2.40;;
39346;SDS011;26262;49.836;6.632;2023-06-10T12:15:42;4.05;;;2.70;;
39346;SDS011;26262;49.836;6.632;2023-06-10T12:18:15;5.75;;;4.90;;
39346;SDS011;26262;49.836;6.632;2023-06-10T12:20:44;3.53;;;3.05;;
39346;SDS011;26262;49.836;6.632;2023-06-10T12:23:10;2.85;;;2.50;;
39346;SDS011;26262;49.836;6.632;2023-06-10T12:25:37;2.53;;;2.33;;
39346;SDS011;26262;49.836;6.632;2023-06-10T12:28:03;2.57;;;2.37;;
39346;SDS011;26262;49.836;6.632;2023-06-10T12:30:29;4.50;;;2.57;;
39346;SDS011;26262;49.836;6.632;2023-06-10T12:32:57;3.90;;;2.58;;
39346;SDS011;26262;49.836;6.632;2023-06-10T12:35:26;3.53;;;2.80;;
39346;SDS011;26262;49.836;6.632;2023-06-10T12:40:28;3.95;;;2.90;;
39346;SDS011;26262;49.836;6.632;2023-06-10T12:43:02;3.67;;;2.47;;
39346;SDS011;26262;49.836;6.632;2023-06-10T12:45:31;3.42;;;2.78;;
39346;SDS011;26262;49.836;6.632;2023-06-10T12:50:37;4.15;;;2.60;;
39346;SDS011;26262;49.836;6.632;2023-06-10T12:53:04;4.25;;;2.97;;
39346;SDS011;26262;49.836;6.632;2023-06-10T12:55:30;4.53;;;3.05;;
39346;SDS011;26262;49.836;6.632;2023-06-10T12:57:57;5.75;;;3.47;;
39346;SDS011;26262;49.836;6.632;2023-06-10T13:00:23;3.55;;;3.13;;
39346;SDS011;26262;49.836;6.632;2023-06-10T13:02:54;3.80;;;3.08;;
39346;SDS011;26262;49.836;6.632;2023-06-10T13:05:21;4.45;;;3.10;;
39346;SDS011;26262;49.836;6.632;2023-06-10T13:07:46;5.00;;;3.28;;
39346;SDS011;26262;49.836;6.632;2023-06-10T13:10:13;4.70;;;3.08;;
39346;SDS011;26262;49.836;6.632;2023-06-10T13:12:39;3.72;;;3.15;;
39346;SDS011;26262;49.836;6.632;2023-06-10T13:15:05;5.18;;;3.17;;
39346;SDS011;26262;49.836;6.632;2023-06-10T13:17:31;3.23;;;2.90;;
39346;SDS011;26262;49.836;6.632;2023-06-10T13:19:59;4.22;;;3.00;;
39346;SDS011;26262;49.836;6.632;2023-06-10T13:22:24;4.65;;;3.33;;
39346;SDS011;26262;49.836;6.632;2023-06-10T13:24:51;6.35;;;3.38;;
39346;SDS011;26262;49.836;6.632;2023-06-10T13:27:17;74.30;;;13.25;;
39346;SDS011;26262;49.836;6.632;2023-06-10T13:29:42;4.38;;;3.15;;
39346;SDS011;26262;49.836;6.632;2023-06-10T13:32:08;2.95;;;2.60;;
39346;SDS011;26262;49.836;6.632;2023-06-10T13:34:33;4.07;;;3.20;;
39346;SDS011;26262;49.836;6.632;2023-06-10T13:37:01;5.55;;;2.70;;
39346;SDS011;26262;49.836;6.632;2023-06-10T13:39:28;3.45;;;2.97;;
39346;SDS011;26262;49.836;6.632;2023-06-10T13:41:54;4.65;;;3.15;;
39346;SDS011;26262;49.836;6.632;2023-06-10T13:44:20;3.38;;;2.50;;
39346;SDS011;26262;49.836;6.632;2023-06-10T13:46:45;6.15;;;2.85;;
39346;SDS011;26262;49.836;6.632;2023-06-10T13:49:11;4.68;;;3.40;;
39346;SDS011;26262;49.836;6.632;2023-06-10T13:51:36;4.68;;;2.95;;
39346;SDS011;26262;49.836;6.632;2023-06-10T13:54:02;3.73;;;2.90;;
39346;SDS011;26262;49.836;6.632;2023-06-10T13:56:27;5.75;;;3.33;;
39346;SDS011;26262;49.836;6.632;2023-06-10T13:58:53;3.65;;;2.85;;
39346;SDS011;26262;49.836;6.632;2023-06-10T14:01:19;3.20;;;2.80;;
39346;SDS011;26262;49.836;6.632;2023-06-10T14:03:44;4.03;;;3.00;;
39346;SDS011;26262;49.836;6.632;2023-06-10T14:06:10;4.32;;;3.20;;
39346;SDS011;26262;49.836;6.632;2023-06-10T14:08:38;4.13;;;3.00;;
39346;SDS011;26262;49.836;6.632;2023-06-10T14:11:03;2.72;;;2.45;;
39346;SDS011;26262;49.836;6.632;2023-06-10T14:13:29;5.95;;;2.58;;
39346;SDS011;26262;49.836;6.632;2023-06-10T14:15:54;3.65;;;2.78;;
39346;SDS011;26262;49.836;6.632;2023-06-10T14:18:20;4.18;;;3.03;;
39346;SDS011;26262;49.836;6.632;2023-06-10T14:20:45;3.53;;;2.40;;
39346;SDS011;26262;49.836;6.632;2023-06-10T14:23:11;6.68;;;2.72;;
39346;SDS011;26262;49.836;6.632;2023-06-10T14:25:37;5.03;;;2.38;;
39346;SDS011;26262;49.836;6.632;2023-06-10T14:28:02;3.85;;;2.65;;
39346;SDS011;26262;49.836;6.632;2023-06-10T14:30:28;4.15;;;2.95;;
39346;SDS011;26262;49.836;6.632;2023-06-10T14:32:53;4.13;;;2.70;;
39346;SDS011;26262;49.836;6.632;2023-06-10T14:35:19;5.35;;;2.85;;
39346;SDS011;26262;49.836;6.632;2023-06-10T14:40:11;4.13;;;3.73;;
39346;SDS011;26262;49.836;6.632;2023-06-10T14:42:37;4.30;;;2.65;;
39346;SDS011;26262;49.836;6.632;2023-06-10T14:45:03;4.63;;;3.40;;
39346;SDS011;26262;49.836;6.632;2023-06-10T14:47:30;4.45;;;2.90;;
39346;SDS011;26262;49.836;6.632;2023-06-10T14:49:56;5.35;;;3.58;;
39346;SDS011;26262;49.836;6.632;2023-06-10T14:52:21;3.30;;;3.00;;
39346;SDS011;26262;49.836;6.632;2023-06-10T14:54:47;5.70;;;2.88;;
39346;SDS011;26262;49.836;6.632;2023-06-10T14:57:12;4.88;;;3.03;;
39346;SDS011;26262;49.836;6.632;2023-06-10T14:59:38;3.60;;;2.88;;
39346;SDS011;26262;49.836;6.632;2023-06-10T15:02:03;4.20;;;2.97;;
39346;SDS011;26262;49.836;6.632;2023-06-10T15:04:29;3.58;;;3.15;;
39346;SDS011;26262;49.836;6.632;2023-06-10T15:06:55;3.40;;;2.90;;
39346;SDS011;26262;49.836;6.632;2023-06-10T15:09:20;4.80;;;3.10;;
39346;SDS011;26262;49.836;6.632;2023-06-10T15:11:46;4.18;;;3.15;;
39346;SDS011;26262;49.836;6.632;2023-06-10T15:14:11;3.13;;;2.83;;
39346;SDS011;26262;49.836;6.632;2023-06-10T15:16:37;3.30;;;3.00;;